GMTT/TNG METAR and TAF weather

Enter ICAO airport designator
Station Type Date Time Source
GMTT METAR 2019/12/12 12:00 UTC NOAA

GMTT 121200Z 29010KT 9999 SCT023 15/09 Q1029 NOSIG


Station Type Date Time Source
GMTT Decoded METAR 2019/12/12 12:00 UTC NOAA

Tanger Aerodrome , Morocco (GMTT) 35-44N 005-54W 21M
Dec 12, 2019 - 07:00 AM EST / 2019.12.12 1200 UTC
Wind: from the WNW (290 degrees) at 12 MPH (10 KT):0
Visibility: greater than 7 mile(s):0
Sky conditions: partly cloudy
Temperature: 59 F (15 C)
Dew Point: 48 F (9 C)
Relative Humidity: 67%
Pressure (altimeter): 30.39 in. Hg (1029 hPa)
ob: GMTT 121200Z 29010KT 9999 SCT023 15/09 Q1029 NOSIG
cycle: 12

Station Type Date Time Source
GMTT TAF 2019/12/12 12:18 UTC NOAA

TAF GMTT 121100Z 1212/1318 29007KT 9999 FEW026
TEMPO 1301/1308 2500 RA SCT010 BKN015 PROB40 1309/1313 3000 RA BKN012

Example: see airport list